Accueil
METAR-TAF:

METAR-TAF

Aéroports :

Aéroport international de Paro

Thimphou, Inde

latitude: 27-24-32N, longitude: 89-25-14E, altitude: 2235 m

Observation

Le bulletin a été fait il y a 22 minutes, à 23:30 UTC
Vent 2 kt de direction variable
Température 0°C
Humidité 86%
Pression 1021 hPa
Visibilité: 8000 m
Nuages fragmentés à une hauteur de 4000 ft

METAR: VQPR 262330Z VRB02KT 8000 BKN040 00/M02 Q1021

Heure: 05:52 (23:52 UTC)


TAF: absent

Observations et prévisions météorologiques de plus de 4000 aéroports (messages METAR et TAF).

Les stations disponibles sont représentées par des disques jaunes et rouges sur la carte.

Passer la souris dessus pour voir le nom de la station.

Cliquer dessus pour voir les observations et prévisions météorologiques.

Pour changer de carte: cliquez sur les boutons verts avec une croix noire pour zoomer, sur le bouton vert avec un tiret pour effectuer un zoom arrière, ou sur les flèches vertes pour les cartes adjacentes.


METAR-TAF: